Time;durP1;ratioP1;P1;durP2;ratioP2;P2;SDS_P1;SDS_P2;PMS_P1;PMS_P2;Temp;Humidity;BMP_temperature;BMP_pressure;BME280_temperature;BME280_humidity;BME280_pressure;Samples;Min_cycle;Max_cycle;Signal;HPM_P1;HPM_P2
2021/01/04 00:02:30;;;;;;;1999.90;999.90;;;;;;;-0.27;100.00;102334.47;1810395;79;20945;-62
2021/01/04 00:05:17;;;;;;;1999.90;999.90;;;;;;;-0.27;100.00;102332.27;1799024;79;22271;-72
2021/01/04 00:08:11;;;;;;;1999.90;999.90;;;;;;;-0.28;100.00;102334.66;1782958;79;21103;-62
2021/01/04 00:11:10;;;;;;;1999.90;999.90;;;;;;;-0.29;100.00;102339.26;1736008;80;21086;-62
2021/01/04 00:13:55;;;;;;;1999.90;999.90;;;;;;;-0.30;100.00;102337.58;1752558;81;21515;-62
2021/01/04 00:16:47;;;;;;;1999.90;999.90;;;;;;;-0.30;100.00;102339.45;1802613;79;21127;-72
2021/01/04 00:19:29;;;;;;;1999.90;999.90;;;;;;;-0.28;100.00;102338.73;1807833;79;22248;-72
2021/01/04 00:22:05;;;;;;;1999.90;999.90;;;;;;;-0.25;100.00;102341.07;1808074;79;20960;-72
2021/01/04 00:24:52;;;;;;;1999.90;999.90;;;;;;;-0.25;100.00;102332.91;1804559;79;21804;-62
2021/01/04 00:27:33;;;;;;;1999.90;999.90;;;;;;;-0.25;100.00;102329.67;1779019;79;21150;-62
2021/01/04 00:30:17;;;;;;;1999.90;999.90;;;;;;;-0.24;100.00;102323.70;1804136;79;21088;-62
2021/01/04 00:32:45;;;;;;;1999.90;999.90;;;;;;;-0.24;100.00;102323.19;1804911;79;22274;-72
2021/01/04 00:35:15;;;;;;;1999.90;999.90;;;;;;;-0.22;100.00;102328.44;1799535;78;21087;-72
2021/01/04 00:38:09;;;;;;;1999.90;999.90;;;;;;;-0.19;100.00;102326.17;1804678;79;21123;-62
2021/01/04 00:41:10;;;;;;;1999.90;999.90;;;;;;;-0.18;100.00;102322.41;1799420;79;21087;-72
2021/01/04 00:43:47;;;;;;;1999.90;999.90;;;;;;;-0.19;100.00;102318.53;1815194;79;21396;-73
2021/01/04 00:46:30;;;;;;;1999.90;999.90;;;;;;;-0.20;100.00;102322.28;1786089;79;22339;-70
2021/01/04 00:49:19;;;;;;;1999.90;999.90;;;;;;;-0.16;100.00;102313.53;1821984;76;22750;-74
2021/01/04 00:52:00;;;;;;;1999.90;999.90;;;;;;;-0.19;100.00;102311.72;1813380;77;20946;-62
2021/01/04 00:55:01;;;;;;;1999.90;999.90;;;;;;;-0.18;100.00;102307.97;1808605;79;21353;-62
2021/01/04 00:57:52;;;;;;;1999.90;999.90;;;;;;;-0.19;100.00;102300.32;1814658;78;21099;-74
2021/01/04 01:00:39;;;;;;;1999.90;999.90;;;;;;;-0.20;100.00;102295.91;1806853;79;21118;-73
2021/01/04 01:03:18;;;;;;;1999.90;999.90;;;;;;;-0.19;100.00;102294.87;1789023;79;20941;-63
2021/01/04 01:06:11;;;;;;;1999.90;999.90;;;;;;;-0.18;100.00;102285.67;1803291;79;20957;-73
2021/01/04 01:08:39;;;;;;;1999.90;999.90;;;;;;;-0.17;100.00;102282.44;1808215;79;21734;-73
2021/01/04 01:11:21;;;;;;;1999.90;999.90;;;;;;;-0.19;100.00;102279.06;1808873;79;21037;-63
2021/01/04 01:13:59;;;;;;;1999.90;999.90;;;;;;;-0.18;100.00;102275.31;1806199;79;21100;-63
2021/01/04 01:16:42;;;;;;;1999.90;999.90;;;;;;;-0.17;100.00;102270.19;1804493;79;20941;-63
2021/01/04 01:19:23;;;;;;;1999.90;999.90;;;;;;;-0.15;100.00;102272.20;1805907;77;21064;-63
2021/01/04 01:21:52;;;;;;;1999.90;999.90;;;;;;;-0.15;100.00;102273.56;1804596;79;21199;-74
2021/01/04 01:24:20;;;;;;;1999.90;999.90;;;;;;;-0.15;100.00;102273.04;1804982;79;21560;-63
2021/01/04 01:27:15;;;;;;;1999.90;999.90;;;;;;;-0.15;100.00;102267.59;1812143;79;21609;-74
2021/01/04 01:30:18;;;;;;;1999.90;999.90;;;;;;;-0.14;100.00;102265.72;1795402;79;21061;-63
2021/01/04 01:33:06;;;;;;;1999.90;999.90;;;;;;;-0.13;100.00;102263.31;1807003;79;21064;-63
2021/01/04 01:36:04;;;;;;;1999.90;999.90;;;;;;;-0.14;100.00;102261.64;1807307;78;21185;-63
2021/01/04 01:39:27;;;;;;;1999.90;999.90;;;;;;;-0.13;100.00;102263.31;1803584;79;21182;-62
2021/01/04 01:42:33;;;;;;;1999.90;999.90;;;;;;;-0.12;100.00;102257.67;1740303;82;21707;-63
2021/01/04 01:45:15;;;;;;;1999.90;999.90;;;;;;;-0.15;100.00;102256.71;1750119;81;21000;-74
2021/01/04 01:48:07;;;;;;;1999.90;999.90;;;;;;;-0.17;100.00;102258.78;1800333;79;20961;-73
2021/01/04 01:50:49;;;;;;;1999.90;999.90;;;;;;;-0.19;100.00;102251.86;1801042;79;21372;-73
2021/01/04 01:53:45;;;;;;;1999.90;999.90;;;;;;;-0.24;100.00;102252.45;1789777;79;21024;-63
2021/01/04 01:56:55;;;;;;;1999.90;999.90;;;;;;;-0.25;100.00;102249.40;1782193;80;21075;-62
2021/01/04 01:59:47;;;;;;;1999.90;999.90;;;;;;;-0.25;100.00;102241.76;1781980;80;21125;-63
2021/01/04 02:02:43;;;;;;;1999.90;999.90;;;;;;;-0.21;100.00;102238.97;1845284;76;22227;-71
2021/01/04 02:05:23;;;;;;;1999.90;999.90;;;;;;;-0.28;100.00;102234.83;1815848;77;20900;-73
2021/01/04 02:08:13;;;;;;;1999.90;999.90;;;;;;;-0.27;100.00;102231.59;1814559;77;21549;-72
2021/01/04 02:10:45;;;;;;;1999.90;999.90;;;;;;;-0.26;100.00;102232.75;1819675;77;21547;-62
2021/01/04 02:13:30;;;;;;;1999.90;999.90;;;;;;;-0.24;100.00;102236.64;1789989;77;20964;-62
2021/01/04 02:16:09;;;;;;;1999.90;999.90;;;;;;;-0.24;100.00;102230.68;1820154;77;20967;-73
2021/01/04 02:19:09;;;;;;;1999.90;999.90;;;;;;;-0.23;100.00;102231.52;1815500;77;20976;-61
2021/01/04 02:22:29;;;;;;;1999.90;999.90;;;;;;;-0.23;100.00;102234.23;1805044;77;21558;-72
2021/01/04 02:24:56;;;;;;;1999.90;999.90;;;;;;;-0.24;100.00;102233.92;1800982;77;21300;-73
2021/01/04 02:27:31;;;;;;;1999.90;999.90;;;;;;;-0.24;100.00;102229.84;1814754;77;21499;-72
2021/01/04 02:30:08;;;;;;;1999.90;999.90;;;;;;;-0.18;100.00;102231.77;1864715;76;22566;-61
2021/01/04 02:32:36;;;;;;;1999.90;999.90;;;;;;;-0.22;100.00;102229.96;1794399;78;21118;-72
2021/01/04 02:35:05;;;;;;;1999.90;999.90;;;;;;;-0.22;100.00;102229.96;1804455;78;21360;-72
2021/01/04 02:37:33;;;;;;;1999.90;999.90;;;;;;;-0.22;100.00;102225.88;1794443;78;20995;-72
2021/01/04 02:40:08;;;;;;;1999.90;999.90;;;;;;;-0.22;100.00;102226.41;1769768;78;20975;-72
2021/01/04 02:42:39;;;;;;;1999.90;999.90;;;;;;;-0.23;100.00;102227.44;1796577;78;20916;-61
2021/01/04 02:45:20;;;;;;;1999.90;999.90;;;;;;;-0.24;100.00;102223.88;1794612;78;20935;-61
2021/01/04 02:48:26;;;;;;;1999.90;999.90;;;;;;;-0.24;100.00;102221.67;1791991;78;21556;-72
2021/01/04 02:51:08;;;;;;;1999.90;999.90;;;;;;;-0.24;100.00;102220.31;1798936;78;20938;-61
2021/01/04 02:54:04;;;;;;;1999.90;999.90;;;;;;;-0.25;100.00;102228.99;1782618;78;21506;-72
2021/01/04 02:57:10;;;;;;;1999.90;999.90;;;;;;;-0.24;100.00;102223.88;1795476;78;21113;-71
2021/01/04 02:59:50;;;;;;;1999.90;999.90;;;;;;;-0.25;100.00;102220.83;1802821;78;20948;-62
2021/01/04 03:02:42;;;;;;;1999.90;999.90;;;;;;;-0.25;100.00;102219.47;1798133;78;21185;-61
2021/01/04 03:05:13;;;;;;;1999.90;999.90;;;;;;;-0.24;100.00;102212.15;1769895;80;21529;-60
2021/01/04 03:07:40;;;;;;;1999.90;999.90;;;;;;;-0.23;100.00;102217.39;1794416;78;20955;-72
2021/01/04 03:10:23;;;;;;;1999.90;999.90;;;;;;;-0.24;100.00;102210.79;1809463;78;21695;-72
2021/01/04 03:13:17;;;;;;;1999.90;999.90;;;;;;;-0.23;100.00;102209.75;1791999;78;20959;-61
2021/01/04 03:16:17;;;;;;;1999.90;999.90;;;;;;;-0.23;100.00;102213.83;1805604;78;21553;-61
2021/01/04 03:18:59;;;;;;;1999.90;999.90;;;;;;;-0.18;100.00;102210.00;1817247;76;22721;-61
2021/01/04 03:21:27;;;;;;;1999.90;999.90;;;;;;;-0.24;100.00;102210.79;1775585;78;20968;-61
2021/01/04 03:23:55;;;;;;;1999.90;999.90;;;;;;;-0.24;100.00;102216.23;1774874;79;21410;-62
2021/01/04 03:26:31;;;;;;;1999.90;999.90;;;;;;;-0.24;100.00;102214.88;1782933;79;20933;-73
2021/01/04 03:28:59;;;;;;;1999.90;999.90;;;;;;;-0.25;100.00;102213.19;1767965;79;21793;-74
2021/01/04 03:31:26;;;;;;;1999.90;999.90;;;;;;;-0.24;100.00;102218.95;1767323;79;21083;-72
2021/01/04 03:33:54;;;;;;;1999.90;999.90;;;;;;;-0.24;100.00;102214.35;1771966;79;20969;-72
2021/01/04 03:36:22;;;;;;;1999.90;999.90;;;;;;;-0.24;100.00;102219.80;1770776;79;21550;-61
2021/01/04 03:38:49;;;;;;;1999.90;999.90;;;;;;;-0.23;100.00;102217.91;1774518;79;21594;-72
2021/01/04 03:41:17;;;;;;;1999.90;999.90;;;;;;;-0.22;100.00;102227.76;1764099;79;20937;-69
2021/01/04 03:43:46;;;;;;;1999.90;999.90;;;;;;;-0.24;100.00;102217.07;1771975;79;21087;-61
2021/01/04 03:46:14;;;;;;;1999.90;999.90;;;;;;;-0.26;100.00;102221.88;1765849;79;20953;-61
2021/01/04 03:48:41;;;;;;;1999.90;999.90;;;;;;;-0.24;100.00;102221.67;1720355;82;21209;-61
2021/01/04 03:51:11;;;;;;;1999.90;999.90;;;;;;;-0.26;100.00;102228.67;1720667;81;21213;-61
2021/01/04 03:53:41;;;;;;;1999.90;999.90;;;;;;;-0.28;100.00;102228.02;1733369;81;21040;-61
2021/01/04 03:56:19;;;;;;;1999.90;999.90;;;;;;;-0.29;100.00;102229.06;1725550;81;21616;-72
2021/01/04 03:58:47;;;;;;;1999.90;999.90;;;;;;;-0.30;100.00;102227.90;1727502;81;21794;-61
2021/01/04 04:01:14;;;;;;;1999.90;999.90;;;;;;;-0.30;100.00;102229.26;1719154;81;22300;-62
2021/01/04 04:03:43;;;;;;;1999.90;999.90;;;;;;;-0.34;100.00;102230.17;1763685;79;20968;-73
2021/01/04 04:06:12;;;;;;;1999.90;999.90;;;;;;;-0.35;100.00;102234.77;1767676;79;21071;-73
2021/01/04 04:08:41;;;;;;;1999.90;999.90;;;;;;;-0.35;100.00;102233.41;1790707;78;21014;-73
2021/01/04 04:11:08;;;;;;;1999.90;999.90;;;;;;;-0.35;100.00;102236.13;1783506;78;21012;-61
2021/01/04 04:13:36;;;;;;;1999.90;999.90;;;;;;;-0.33;100.00;102237.30;1782020;79;21586;-71
2021/01/04 04:16:04;;;;;;;1999.90;999.90;;;;;;;-0.33;100.00;102239.50;1766934;79;21123;-74
2021/01/04 04:18:32;;;;;;;1999.90;999.90;;;;;;;-0.31;100.00;102243.38;1775048;79;21040;-62
2021/01/04 04:21:00;;;;;;;1999.90;999.90;;;;;;;-0.29;100.00;102237.75;1767297;79;21147;-61
2021/01/04 04:23:28;;;;;;;1999.90;999.90;;;;;;;-0.29;100.00;102237.23;1769621;80;21139;-74
2021/01/04 04:25:56;;;;;;;1999.90;999.90;;;;;;;-0.32;100.00;102236.26;1771280;79;21389;-69
2021/01/04 04:28:24;;;;;;;1999.90;999.90;;;;;;;-0.34;100.00;102240.53;1775001;80;21123;-61
2021/01/04 04:30:52;;;;;;;1999.90;999.90;;;;;;;-0.34;100.00;102241.89;1771917;80;20953;-74
2021/01/04 04:33:20;;;;;;;1999.90;999.90;;;;;;;-0.33;100.00;102242.73;1772135;80;20953;-68
2021/01/04 04:35:52;;;;;;;1999.90;999.90;;;;;;;-0.34;100.00;102241.05;1771564;80;21026;-61
2021/01/04 04:38:20;;;;;;;1999.90;999.90;;;;;;;-0.35;100.00;102246.17;1774432;80;21361;-68
2021/01/04 04:40:49;;;;;;;1999.90;999.90;;;;;;;-0.37;100.00;102248.25;1772596;79;21008;-74
2021/01/04 04:43:37;;;;;;;1999.90;999.90;;;;;;;-0.39;100.00;102240.28;1772047;80;21179;-61
2021/01/04 04:46:15;;;;;;;1999.90;999.90;;;;;;;-0.39;100.00;102240.80;1769879;80;21111;-74
2021/01/04 04:48:54;;;;;;;1999.90;999.90;;;;;;;-0.39;100.00;102247.08;1752956;80;21075;-73
2021/01/04 04:51:50;;;;;;;1999.90;999.90;;;;;;;-0.38;100.00;102250.13;1748615;81;21389;-74
2021/01/04 04:54:41;;;;;;;1999.90;999.90;;;;;;;-0.35;100.00;102243.45;1777416;80;21555;-61
2021/01/04 04:57:44;;;;;;;1999.90;999.90;;;;;;;-0.27;100.00;102241.95;1853616;76;22565;-62
2021/01/04 05:00:23;;;;;;;1999.90;999.90;;;;;;;-0.30;100.00;102243.70;1818638;77;20937;-74
2021/01/04 05:03:11;;;;;;;1999.90;999.90;;;;;;;-0.29;100.00;102249.98;1823116;77;21202;-74
2021/01/04 05:06:21;;;;;;;1999.90;999.90;;;;;;;-0.32;100.00;102245.27;1817036;77;20964;-73
2021/01/04 05:09:15;;;;;;;1999.90;999.90;;;;;;;-0.32;100.00;102252.06;1823073;77;20953;-74
2021/01/04 05:11:45;;;;;;;1999.90;999.90;;;;;;;-0.28;100.00;102252.52;1830225;77;21482;-75
2021/01/04 05:14:17;;;;;;;1999.90;999.90;;;;;;;-0.24;100.00;102258.41;1796353;78;21072;-62
2021/01/04 05:17:22;;;;;;;1999.90;999.90;;;;;;;-0.23;100.00;102258.21;1828776;77;22052;-74
2021/01/04 05:20:48;;;;;;;1999.90;999.90;;;;;;;-0.23;100.00;102265.53;1815482;77;20980;-62
2021/01/04 05:23:30;;;;;;;1999.90;999.90;;;;;;;-0.25;100.00;102262.16;1821305;77;20956;-62
2021/01/04 05:26:44;;;;;;;1999.90;999.90;;;;;;;-0.24;100.00;102262.48;1827172;77;21528;-74
2021/01/04 05:29:44;;;;;;;1999.90;999.90;;;;;;;-0.25;100.00;102256.72;1824998;77;20987;-75
2021/01/04 05:32:41;;;;;;;1999.90;999.90;;;;;;;-0.24;100.00;102267.93;1825727;77;21363;-62
2021/01/04 05:35:11;;;;;;;1999.90;999.90;;;;;;;-0.21;100.00;102271.63;1822841;77;21098;-74
2021/01/04 05:37:54;;;;;;;1999.90;999.90;;;;;;;-0.22;100.00;102269.42;1825101;77;20968;-62
2021/01/04 05:40:58;;;;;;;1999.90;999.90;;;;;;;-0.23;100.00;102270.45;1807959;77;21055;-61
2021/01/04 05:43:40;;;;;;;1999.90;999.90;;;;;;;-0.23;100.00;102272.34;1834855;77;20960;-62
2021/01/04 05:46:25;;;;;;;1999.90;999.90;;;;;;;-0.23;100.00;102269.09;1832634;75;21358;-74
2021/01/04 05:49:20;;;;;;;1999.90;999.90;;;;;;;-0.21;100.00;102270.26;1782588;77;20984;-74
2021/01/04 05:51:49;;;;;;;1999.90;999.90;;;;;;;-0.20;100.00;102270.58;1834494;76;20929;-75
2021/01/04 05:54:29;;;;;;;1999.90;999.90;;;;;;;-0.21;100.00;102267.54;1826469;77;21111;-61
2021/01/04 05:57:11;;;;;;;1999.90;999.90;;;;;;;-0.22;100.00;102270.78;1812782;76;20977;-74
2021/01/04 05:59:54;;;;;;;1999.90;999.90;;;;;;;-0.24;100.00;102276.94;1793923;79;21366;-62
2021/01/04 06:05:15;;;;;;;1999.90;999.90;;;;;;;-0.22;100.00;102278.10;1858654;75;27938;-60
2021/01/04 06:07:45;;;;;;;1999.90;999.90;;;;;;;-0.18;100.00;102276.16;1825957;77;21012;-63
2021/01/04 06:10:34;;;;;;;1999.90;999.90;;;;;;;-0.14;100.00;102284.25;1822015;77;21561;-74
2021/01/04 06:13:04;;;;;;;1999.90;999.90;;;;;;;-0.15;100.00;102285.28;1835021;76;21083;-74
2021/01/04 06:15:35;;;;;;;1999.90;999.90;;;;;;;-0.16;100.00;102282.77;1786223;77;21055;-74
2021/01/04 06:18:06;;;;;;;1999.90;999.90;;;;;;;-0.17;100.00;102279.20;1808361;77;21120;-61
2021/01/04 06:20:45;;;;;;;1999.90;999.90;;;;;;;-0.16;100.00;102280.87;1814209;77;20964;-62
2021/01/04 06:23:31;;;;;;;1999.90;999.90;;;;;;;-0.16;100.00;102275.95;1821386;77;21366;-74
2021/01/04 06:26:03;;;;;;;1999.90;999.90;;;;;;;-0.18;100.00;102278.03;1820978;77;20960;-72
2021/01/04 06:28:35;;;;;;;1999.90;999.90;;;;;;;-0.20;100.00;102276.87;1822047;77;21539;-74
2021/01/04 06:31:05;;;;;;;1999.90;999.90;;;;;;;-0.22;100.00;102276.73;1817017;77;21561;-61
2021/01/04 06:33:33;;;;;;;1999.90;999.90;;;;;;;-0.22;100.00;102268.06;1802380;77;20956;-61
2021/01/04 06:36:17;;;;;;;1999.90;999.90;;;;;;;-0.20;100.00;102270.58;1819658;77;21194;-68
2021/01/04 06:38:44;;;;;;;1999.90;999.90;;;;;;;-0.19;100.00;102273.63;1797982;77;20956;-61
2021/01/04 06:41:16;;;;;;;1999.90;999.90;;;;;;;-0.15;100.00;102265.39;1827561;77;21008;-61
2021/01/04 06:43:44;;;;;;;1999.90;999.90;;;;;;;-0.11;100.00;102266.17;1821413;77;21072;-75
2021/01/04 06:46:34;;;;;;;1999.90;999.90;;;;;;;-0.10;100.00;102265.65;1820726;77;21557;-61
2021/01/04 06:49:22;;;;;;;1999.90;999.90;;;;;;;-0.11;100.00;102269.41;1805738;77;21438;-61
2021/01/04 06:52:07;;;;;;;1999.90;999.90;;;;;;;-0.10;100.00;102267.00;1815585;77;20999;-62
2021/01/04 06:54:44;;;;;;;1999.90;999.90;;;;;;;-0.11;100.00;102264.80;1836426;77;21506;-61
2021/01/04 06:57:23;;;;;;;1999.90;999.90;;;;;;;-0.11;100.00;102263.44;1818711;77;21142;-74
2021/01/04 07:00:20;;;;;;;1999.90;999.90;;;;;;;-0.04;100.00;102262.98;1897009;73;21938;-75
2021/01/04 07:03:11;;;;;;;1999.90;999.90;;;;;;;-0.08;100.00;102265.77;1871886;76;20901;-62
2021/01/04 07:06:12;;;;;;;1999.90;999.90;;;;;;;-0.08;100.00;102259.48;1885104;76;21238;-74
2021/01/04 07:09:00;;;;;;;1999.90;999.90;;;;;;;-0.10;100.00;102252.88;1877137;74;20905;-61
2021/01/04 07:11:56;;;;;;;1999.90;999.90;;;;;;;-0.09;100.00;102257.28;1880087;75;20964;-74
2021/01/04 07:14:49;;;;;;;;;;;;;;;-0.07;100.00;102259.81;1880439;76;20940;-61
2021/01/04 07:17:38;;;;;;;1999.90;999.90;;;;;;;-0.07;100.00;102259.81;1872267;75;20150;-61
2021/01/04 07:20:45;;;;;;;1999.90;999.90;;;;;;;-0.06;100.00;102256.89;1875049;76;21431;-61
2021/01/04 07:23:45;;;;;;;1999.90;999.90;;;;;;;-0.03;100.00;102257.02;1877296;75;20936;-63
2021/01/04 07:26:25;;;;;;;1999.90;999.90;;;;;;;-0.03;100.00;102252.94;1881194;76;21523;-76
2021/01/04 07:29:27;;;;;;;1999.90;999.90;;;;;;;-0.03;100.00;102248.85;1882803;75;20929;-61
2021/01/04 07:32:26;;;;;;;1999.90;999.90;;;;;;;-0.03;100.00;102250.21;1887239;76;21522;-61
2021/01/04 07:35:29;;;;;;;1999.90;999.90;;;;;;;0.00;100.00;102251.21;1881123;76;21349;-62
2021/01/04 07:38:14;;;;;;;1999.90;999.90;;;;;;;0.04;100.00;102235.33;1885685;76;21649;-74
2021/01/04 07:41:18;;;;;;;1999.90;999.90;;;;;;;0.07;100.00;102237.65;1875171;76;21309;-70
2021/01/04 07:44:10;;;;;;;1999.90;999.90;;;;;;;0.08;100.00;102244.78;1844417;76;21007;-74
2021/01/04 07:47:23;;;;;;;1999.90;999.90;;;;;;;0.07;100.00;102242.58;1822936;78;21083;-69
2021/01/04 07:50:41;;;;;;;1999.90;999.90;;;;;;;0.11;100.00;102250.67;1825066;78;22247;-74
2021/01/04 07:53:38;;;;;;;1999.90;999.90;;;;;;;0.13;100.00;102254.55;1817572;78;21046;-61
2021/01/04 07:56:55;;;;;;;1999.90;999.90;;;;;;;0.15;100.00;102246.50;1823546;78;20971;-75
2021/01/04 07:59:47;;;;;;;1999.90;999.90;;;;;;;0.19;100.00;102238.78;1821157;76;22314;-63
2021/01/04 08:02:57;;;;;;;1999.90;999.90;;;;;;;0.17;100.00;102236.78;1758939;79;20960;-76
2021/01/04 08:06:07;;;;;;;1999.90;999.90;;;;;;;0.16;100.00;102233.73;1771885;80;22234;-75
2021/01/04 08:08:40;;;;;;;1999.90;999.90;;;;;;;0.16;100.00;102223.69;1773185;80;21015;-63
2021/01/04 08:11:44;;;;;;;1999.90;999.90;;;;;;;0.15;100.00;102221.16;1775024;80;20952;-76
2021/01/04 08:14:32;;;;;;;1999.90;999.90;;;;;;;0.15;100.00;102211.11;1769454;80;21398;-75
2021/01/04 08:17:18;;;;;;;1999.90;999.90;;;;;;;0.14;100.00;102210.79;1770199;80;21299;-64
2021/01/04 08:19:45;;;;;;;1999.90;999.90;;;;;;;0.17;100.00;102213.63;1773925;80;21962;-75
2021/01/04 08:22:28;;;;;;;1999.90;999.90;;;;;;;0.18;100.00;102209.35;1764277;80;21015;-75
2021/01/04 08:25:08;;;;;;;1999.90;999.90;;;;;;;0.27;100.00;102205.42;1833688;76;22772;-71
2021/01/04 08:27:56;;;;;;;1999.90;999.90;;;;;;;0.25;100.00;102209.39;1768025;80;20957;-61
2021/01/04 08:30:31;;;;;;;1999.90;999.90;;;;;;;0.25;100.00;102210.75;1776135;80;21365;-73
2021/01/04 08:33:14;;;;;;;1999.90;999.90;;;;;;;0.24;100.00;102205.83;1769355;80;20985;-61
2021/01/04 08:35:44;;;;;;;1999.90;999.90;;;;;;;0.26;100.00;102205.63;1729484;80;21523;-61
2021/01/04 08:38:20;;;;;;;1999.90;999.90;;;;;;;0.32;100.00;102208.91;1782118;80;21121;-62
2021/01/04 08:41:03;;;;;;;1999.90;999.90;;;;;;;0.35;100.00;102209.03;1777536;80;21582;-73
2021/01/04 08:43:44;;;;;;;1999.90;999.90;;;;;;;0.37;100.00;102208.31;1766658;80;21308;-74
2021/01/04 08:46:26;;;;;;;1999.90;999.90;;;;;;;0.37;100.00;102211.03;1759784;80;21167;-61
2021/01/04 08:49:00;;;;;;;1999.90;999.90;;;;;;;0.37;100.00;102202.34;1741339;80;20951;-72
2021/01/04 08:51:32;;;;;;;1999.90;999.90;;;;;;;0.38;100.00;102206.74;1770959;80;21085;-73
2021/01/04 08:54:05;;;;;;;1999.90;999.90;;;;;;;0.39;100.00;102204.34;1773694;80;20949;-61
2021/01/04 08:56:41;;;;;;;1999.90;999.90;;;;;;;0.40;100.00;102206.02;1768977;80;21578;-61
2021/01/04 08:59:21;;;;;;;1999.90;999.90;;;;;;;0.40;100.00;102203.82;1765759;79;21678;-61
2021/01/04 09:01:58;;;;;;;1999.90;999.90;;;;;;;0.46;100.00;102200.29;1855577;75;22669;-72
2021/01/04 09:04:33;;;;;;;1999.90;999.90;;;;;;;0.43;100.00;102197.97;1828603;77;20934;-63
2021/01/04 09:07:17;;;;;;;1999.90;999.90;;;;;;;0.43;100.00;102196.61;1817975;77;21373;-75
2021/01/04 09:09:52;;;;;;;1999.90;999.90;;;;;;;0.43;100.00;102195.25;1823436;77;20967;-76
2021/01/04 09:12:45;;;;;;;1999.90;999.90;;;;;;;0.43;100.00;102185.19;1795178;77;20940;-63
2021/01/04 09:15:21;;;;;;;1999.90;999.90;;;;;;;0.47;100.00;102194.64;1788073;78;21117;-75
2021/01/04 09:18:09;;;;;;;1999.90;999.90;;;;;;;0.50;100.00;102182.50;1790131;79;21149;-63
2021/01/04 09:21:04;;;;;;;1999.90;999.90;;;;;;;0.53;100.00;102172.03;1788836;78;21392;-63
2021/01/04 09:23:40;;;;;;;1999.90;999.90;;;;;;;0.54;100.00;102174.23;1787023;79;21037;-63
2021/01/04 09:26:28;;;;;;;1999.90;999.90;;;;;;;0.56;100.00;102169.42;1783539;79;21123;-63
2021/01/04 09:29:22;;;;;;;1999.90;999.90;;;;;;;0.56;100.00;102168.06;1750201;80;21560;-62
2021/01/04 09:31:57;;;;;;;1999.90;999.90;;;;;;;0.55;100.00;102165.86;1797813;78;21540;-74
2021/01/04 09:34:32;;;;;;;1999.90;999.90;;;;;;;0.59;100.00;102164.41;1864669;76;22563;-62
2021/01/04 09:37:17;;;;;;;1999.90;999.90;;;;;;;0.54;100.00;102161.98;1830270;77;21068;-62
2021/01/04 09:39:45;;;;;;;1999.90;999.90;;;;;;;0.55;100.00;102165.02;1839985;77;21269;-76
2021/01/04 09:42:17;;;;;;;1999.90;999.90;;;;;;;0.56;100.00;102165.34;1777673;80;20983;-70
2021/01/04 09:44:45;;;;;;;1999.90;999.90;;;;;;;0.56;100.00;102156.64;1764390;80;21147;-75
2021/01/04 09:47:27;;;;;;;1999.90;999.90;;;;;;;0.56;100.00;102149.00;1745291;80;20981;-73
2021/01/04 09:50:02;;;;;;;1999.90;999.90;;;;;;;0.54;100.00;102145.11;1765285;80;20989;-61
2021/01/04 09:52:44;;;;;;;1999.90;999.90;;;;;;;0.51;100.00;102144.16;1766059;80;21405;-74
2021/01/04 09:55:23;;;;;;;1999.90;999.90;;;;;;;0.59;100.00;102141.78;1819342;76;22685;-75
2021/01/04 09:57:51;;;;;;;1999.90;999.90;;;;;;;0.58;100.00;102149.63;1776961;79;20972;-63
2021/01/04 10:00:23;;;;;;;1999.90;999.90;;;;;;;0.63;100.00;102149.86;1776120;79;21390;-75
2021/01/04 10:03:15;;;;;;;1999.90;999.90;;;;;;;0.62;100.00;102140.84;1785638;79;21495;-74
2021/01/04 10:05:45;;;;;;;1999.90;999.90;;;;;;;0.61;100.00;102133.72;1770333;79;21015;-75
2021/01/04 10:08:17;;;;;;;1999.90;999.90;;;;;;;0.60;100.00;102127.11;1769725;79;21123;-75
2021/01/04 10:10:58;;;;;;;1999.90;999.90;;;;;;;0.61;100.00;102129.63;1714970;81;21186;-71
2021/01/04 10:13:37;;;;;;;1999.90;999.90;;;;;;;0.68;100.00;102122.84;1820771;76;22368;-63
2021/01/04 10:16:15;;;;;;;1999.90;999.90;;;;;;;0.67;100.00;102127.12;1799906;79;21567;-76
2021/01/04 10:19:08;;;;;;;1999.90;999.90;;;;;;;0.66;100.00;102113.19;1797913;78;21380;-61
2021/01/04 10:21:48;;;;;;;1999.90;999.90;;;;;;;0.68;100.00;102103.77;1785128;79;21061;-72
2021/01/04 10:24:27;;;;;;;1999.90;999.90;;;;;;;0.70;100.00;102102.20;1802212;77;21530;-74
2021/01/04 10:27:05;;;;;;;1999.90;999.90;;;;;;;0.69;100.00;102095.06;1796152;77;20941;-72
2021/01/04 10:29:40;;;;;;;1999.90;999.90;;;;;;;0.70;100.00;102094.86;1795124;79;20953;-72
2021/01/04 10:32:21;;;;;;;1999.90;999.90;;;;;;;0.74;100.00;102088.47;1803930;79;21363;-62
2021/01/04 10:34:57;;;;;;;1999.90;999.90;;;;;;;0.76;100.00;102070.87;1876255;75;22723;-62
2021/01/04 10:37:43;;;;;;;1999.90;999.90;;;;;;;0.71;100.00;102076.09;1834853;77;20953;-74
2021/01/04 10:40:16;;;;;;;1999.90;999.90;;;;;;;0.70;100.00;102068.97;1814712;78;21373;-62
2021/01/04 10:43:03;;;;;;;1999.90;999.90;;;;;;;0.74;100.00;102063.42;1864595;76;22585;-73
2021/01/04 10:45:37;;;;;;;1999.90;999.90;;;;;;;0.71;100.00;102065.20;1840887;76;21047;-61
2021/01/04 10:48:20;;;;;;;1999.90;999.90;;;;;;;0.74;100.00;102057.13;1848855;75;21375;-60
2021/01/04 10:50:51;;;;;;;1999.90;999.90;;;;;;;0.74;100.00;102044.88;1792925;78;21085;-61
2021/01/04 10:53:38;;;;;;;1999.90;999.90;;;;;;;0.75;100.00;102047.91;1776528;80;20935;-71
2021/01/04 10:56:20;;;;;;;1999.90;999.90;;;;;;;0.73;100.00;102058.18;1801418;78;21029;-61
2021/01/04 10:58:59;;;;;;;1999.90;999.90;;;;;;;0.67;100.00;102057.13;1803503;78;20970;-61
2021/01/04 11:01:33;;;;;;;1999.90;999.90;;;;;;;0.64;100.00;102056.17;1800594;78;22508;-72
2021/01/04 11:04:12;;;;;;;1999.90;999.90;;;;;;;0.63;100.00;102060.78;1796623;78;21116;-60
2021/01/04 11:06:43;;;;;;;1999.90;999.90;;;;;;;0.66;100.00;102051.36;1795999;78;21524;-61
2021/01/04 11:09:21;;;;;;;1999.90;999.90;;;;;;;0.67;100.00;102046.22;1797473;78;20950;-61
2021/01/04 11:11:50;;;;;;;1999.90;999.90;;;;;;;0.69;100.00;102052.30;1790815;78;21475;-61
2021/01/04 11:14:21;;;;;;;1999.90;999.90;;;;;;;0.71;100.00;102052.94;1817259;77;21338;-71
2021/01/04 11:16:52;;;;;;;1999.90;999.90;;;;;;;0.67;100.00;102051.67;1808944;78;21075;-61
2021/01/04 11:19:33;;;;;;;1999.90;999.90;;;;;;;0.68;100.00;102045.70;1805358;77;20996;-61
2021/01/04 11:22:21;;;;;;;1999.90;999.90;;;;;;;0.68;100.00;102047.91;1806780;78;20965;-61
2021/01/04 11:24:49;;;;;;;1999.90;999.90;;;;;;;0.66;100.00;102040.98;1806485;78;21068;-60
2021/01/04 11:27:18;;;;;;;1999.90;999.90;;;;;;;0.66;100.00;102033.64;1800174;78;21186;-72
2021/01/04 11:29:46;;;;;;;1999.90;999.90;;;;;;;0.70;100.00;102036.80;1806185;78;21132;-61
2021/01/04 11:32:14;;;;;;;1999.90;999.90;;;;;;;0.72;100.00;102036.91;1811176;78;20990;-61
2021/01/04 11:34:45;;;;;;;1999.90;999.90;;;;;;;0.71;100.00;102032.50;1802821;77;21553;-61
2021/01/04 11:37:14;;;;;;;1999.90;999.90;;;;;;;0.71;100.00;102029.77;1807619;78;21509;-60
2021/01/04 11:39:42;;;;;;;1999.90;999.90;;;;;;;0.74;100.00;102033.45;1766048;80;21373;-61
2021/01/04 11:42:11;;;;;;;1999.90;999.90;;;;;;;0.77;100.00;102033.03;1795225;78;21187;-71
2021/01/04 11:44:39;;;;;;;1999.90;999.90;;;;;;;0.79;100.00;102033.66;1800335;78;21474;-68
2021/01/04 11:47:07;;;;;;;1999.90;999.90;;;;;;;0.78;100.00;102034.71;1798399;79;21155;-63
2021/01/04 11:49:36;;;;;;;1999.90;999.90;;;;;;;0.79;100.00;102035.55;1792547;79;21126;-61